Time;durP1;ratioP1;P1;durP2;ratioP2;P2;SDS_P1;SDS_P2;PMS_P1;PMS_P2;Temp;Humidity;BMP_temperature;BMP_pressure;BME280_temperature;BME280_humidity;BME280_pressure;Samples;Min_cycle;Max_cycle;Signal;HPM_P1;HPM_P2
2021/12/24 00:00:45;;;;;;;33.28;17.33;;;;;;;4.13;100.00;97779.75;5099853;28;20509;-77
2021/12/24 00:03:12;;;;;;;30.88;17.65;;;;;;;4.19;100.00;97780.59;5096683;28;20123;-77
2021/12/24 00:05:38;;;;;;;33.38;17.52;;;;;;;4.20;100.00;97780.34;5102227;28;20036;-76
2021/12/24 00:08:04;;;;;;;30.85;16.92;;;;;;;4.26;100.00;97781.22;5107484;28;20027;-75
2021/12/24 00:10:33;;;;;;;30.30;17.00;;;;;;;4.30;100.00;97780.41;5111038;28;20035;-75
2021/12/24 00:13:13;;;;;;;32.78;17.55;;;;;;;4.31;100.00;97776.66;5111170;28;20081;-74
2021/12/24 00:15:53;;;;;;;26.55;15.55;;;;;;;4.35;100.00;97776.94;5110694;28;20053;-74
2021/12/24 00:37:26;;;;;;;33.55;17.92;;;;;;;4.31;100.00;97757.69;5091343;28;20089;-77
2021/12/24 00:42:33;;;;;;;31.80;17.30;;;;;;;4.42;100.00;97757.78;5091249;28;20024;-73
2021/12/24 00:44:58;;;;;;;35.90;19.38;;;;;;;4.41;100.00;97765.06;5090954;28;20028;-76
2021/12/24 00:47:25;;;;;;;31.10;18.10;;;;;;;4.43;100.00;97765.63;5090437;28;20472;-75
2021/12/24 00:49:51;;;;;;;34.88;18.17;;;;;;;4.40;100.00;97762.63;5090455;28;20388;-76
2021/12/24 00:55:05;;;;;;;31.58;17.70;;;;;;;4.40;100.00;97763.44;5094378;28;20020;-75
2021/12/24 00:57:36;;;;;;;35.78;18.33;;;;;;;4.39;100.00;97767.22;5095630;28;20793;-74
2021/12/24 01:00:05;;;;;;;35.53;18.27;;;;;;;4.33;100.00;97754.72;5094436;28;20447;-76
2021/12/24 01:02:31;;;;;;;36.03;19.23;;;;;;;4.33;100.00;97763.66;5094377;28;20445;-76
2021/12/24 01:04:56;;;;;;;33.15;17.63;;;;;;;4.34;100.00;97764.47;5094622;28;20028;-76
2021/12/24 01:07:22;;;;;;;34.17;18.25;;;;;;;4.28;100.00;97755.50;5094236;28;20065;-77
2021/12/24 01:09:48;;;;;;;32.38;18.00;;;;;;;4.29;100.00;97757.13;5094123;28;20070;-76
2021/12/24 01:12:13;;;;;;;37.22;19.20;;;;;;;4.23;100.00;97752.75;5094587;28;20020;-76
2021/12/24 01:14:39;;;;;;;34.65;18.58;;;;;;;4.23;100.00;97758.16;5094162;28;20496;-76
2021/12/24 01:17:22;;;;;;;32.47;16.70;;;;;;;4.26;100.00;97756.84;5093893;28;20063;-76
2021/12/24 01:19:51;;;;;;;32.80;17.60;;;;;;;4.22;100.00;97759.25;5094386;28;20453;-74
2021/12/24 01:25:11;;;;;;;33.78;18.08;;;;;;;4.19;100.00;97754.38;5114861;28;20032;-76
2021/12/24 01:37:53;;;;;;;35.10;18.83;;;;;;;4.10;100.00;97746.97;5093810;28;20487;-74
2021/12/24 01:38:24;;;;;;;38.50;18.90;;;;;;;3.93;100.00;97757.94;5093551;28;20573;-75
2021/12/24 01:41:06;;;;;;;35.85;18.15;;;;;;;3.91;100.00;97751.16;5093312;28;20028;-76
2021/12/24 01:43:32;;;;;;;35.45;19.80;;;;;;;3.91;100.00;97760.09;5101650;28;20028;-75
2021/12/24 01:46:00;;;;;;;34.30;19.20;;;;;;;3.96;100.00;97752.00;5113806;28;20035;-75
2021/12/24 01:48:28;;;;;;;39.75;20.30;;;;;;;3.91;100.00;97749.28;5113730;28;20149;-74
2021/12/24 01:50:55;;;;;;;38.67;20.67;;;;;;;3.93;100.00;97741.69;5112329;28;20038;-75
2021/12/24 01:53:23;;;;;;;35.00;19.75;;;;;;;3.88;100.00;97736.25;5118308;28;20048;-77
2021/12/24 01:55:50;;;;;;;36.58;20.58;;;;;;;3.84;100.00;97739.72;5115051;28;20035;-73
2021/12/24 01:58:24;;;;;;;39.35;20.77;;;;;;;3.81;100.00;97732.94;5113937;28;20483;-73
2021/12/24 02:00:51;;;;;;;38.90;20.25;;;;;;;3.82;100.00;97734.59;5095028;28;20108;-75
2021/12/24 02:03:17;;;;;;;38.45;19.90;;;;;;;3.81;100.00;97734.81;5113585;28;20030;-74
2021/12/24 02:05:43;;;;;;;41.95;21.50;;;;;;;3.79;100.00;97740.47;5113443;28;20016;-74
2021/12/24 02:08:11;;;;;;;40.67;20.75;;;;;;;3.68;100.00;97725.25;5113382;28;20059;-74
2021/12/24 02:10:37;;;;;;;39.97;20.00;;;;;;;3.62;100.00;97727.09;5113377;28;20027;-74
2021/12/24 02:13:03;;;;;;;40.47;20.90;;;;;;;3.68;100.00;97725.25;5113816;28;20100;-74
2021/12/24 02:28:17;;;;;;;42.88;21.38;;;;;;;3.68;100.00;97725.25;5112957;28;20059;-73
2021/12/24 02:29:23;;;;;;;34.00;18.20;;;;;;;3.71;100.00;97711.22;5092506;28;20043;-75
2021/12/24 02:31:48;;;;;;;37.28;19.95;;;;;;;3.73;100.00;97709.88;5092181;28;20020;-74
2021/12/24 02:34:14;;;;;;;38.28;20.05;;;;;;;3.82;100.00;97709.41;5092695;28;20108;-74
2021/12/24 02:36:42;;;;;;;38.85;21.23;;;;;;;3.88;100.00;97701.09;5093641;28;20032;-75
2021/12/24 02:39:08;;;;;;;43.05;20.38;;;;;;;3.95;100.00;97701.66;5094543;28;20498;-75
2021/12/24 02:41:33;;;;;;;44.50;20.42;;;;;;;3.97;100.00;97702.25;5102012;28;20115;-78
2021/12/24 02:43:59;;;;;;;37.45;19.77;;;;;;;4.10;100.00;97704.47;5094175;28;20039;-77
2021/12/24 02:47:15;;;;;;;38.40;20.13;;;;;;;4.16;100.00;97703.47;5092790;28;20020;-77
2021/12/24 02:49:16;;;;;;;38.17;20.73;;;;;;;4.20;100.00;97701.84;5085920;28;20028;-75
2021/12/24 02:54:26;;;;;;;44.47;22.40;;;;;;;4.20;100.00;97709.97;5091690;28;20055;-74
2021/12/24 02:56:54;;;;;;;44.42;22.60;;;;;;;4.20;100.00;97704.56;5091412;28;20404;-74
2021/12/24 02:59:29;;;;;;;40.80;22.48;;;;;;;4.19;100.00;97702.94;5091372;28;20043;-73
2021/12/24 03:01:56;;;;;;;42.30;23.90;;;;;;;4.17;100.00;97715.91;5091374;28;20047;-76
2021/12/24 03:04:22;;;;;;;41.50;22.38;;;;;;;4.09;100.00;97710.97;5089829;28;20036;-75
2021/12/24 03:06:50;;;;;;;44.95;23.95;;;;;;;4.02;100.00;97702.25;5091705;28;20532;-74
2021/12/24 03:09:18;;;;;;;39.78;22.67;;;;;;;3.89;100.00;97708.09;5092139;28;20054;-76
2021/12/24 03:11:45;;;;;;;45.15;23.70;;;;;;;3.93;100.00;97692.19;5099012;28;20106;-80
2021/12/24 03:14:11;;;;;;;41.78;21.80;;;;;;;3.96;100.00;97695.19;5094125;28;20028;-75
2021/12/24 03:16:38;;;;;;;44.60;23.05;;;;;;;3.97;100.00;97683.28;5092803;28;20074;-76
2021/12/24 03:19:05;;;;;;;39.30;22.67;;;;;;;3.99;100.00;97696.56;5090378;28;20036;-75
2021/12/24 03:21:37;;;;;;;41.95;22.05;;;;;;;3.98;100.00;97689.53;5093093;28;20028;-81
2021/12/24 03:26:38;;;;;;;48.63;23.70;;;;;;;3.91;100.00;97684.34;5091790;28;20115;-75
2021/12/24 03:29:06;;;;;;;46.58;23.85;;;;;;;3.86;100.00;97681.56;5091583;28;20110;-77
2021/12/24 03:31:32;;;;;;;45.15;22.88;;;;;;;3.83;100.00;97681.28;5091295;28;20028;-77
2021/12/24 03:33:58;;;;;;;44.63;22.63;;;;;;;3.83;100.00;97676.69;5104037;28;20517;-76
2021/12/24 03:36:26;;;;;;;47.47;24.38;;;;;;;3.78;100.00;97679.38;5110601;28;20540;-78
2021/12/24 03:38:52;;;;;;;42.17;21.63;;;;;;;3.78;100.00;97669.38;5110868;28;20068;-74
2021/12/24 03:41:18;;;;;;;43.88;23.02;;;;;;;3.78;100.00;97666.66;5111547;28;20023;-76
2021/12/24 03:43:43;;;;;;;43.38;24.08;;;;;;;3.64;100.00;97668.16;5113945;28;20399;-76
2021/12/24 03:46:14;;;;;;;48.72;23.25;;;;;;;3.67;100.00;97669.53;5118109;28;20035;-76
2021/12/24 03:56:25;;;;;;;45.67;23.85;;;;;;;3.82;100.00;97672.38;5112538;28;20059;-75
2021/12/24 03:58:50;;;;;;;43.53;22.45;;;;;;;3.79;100.00;97662.88;5118327;28;20031;-75
2021/12/24 04:01:16;;;;;;;38.53;21.15;;;;;;;3.78;100.00;97668.53;5111890;28;20019;-73
2021/12/24 04:03:41;;;;;;;51.58;25.75;;;;;;;3.71;100.00;97663.34;5111234;28;20031;-75
2021/12/24 04:06:07;;;;;;;77.32;30.83;;;;;;;3.60;100.00;97671.66;5111442;28;20019;-75
2021/12/24 04:08:32;;;;;;;59.80;27.50;;;;;;;3.59;100.00;97673.53;5113658;28;20027;-75
2021/12/24 04:10:58;;;;;;;49.40;23.40;;;;;;;3.52;100.00;97670.22;5111491;28;20546;-75
2021/12/24 04:13:23;;;;;;;40.63;21.08;;;;;;;3.53;100.00;97679.97;5111601;28;20020;-75
2021/12/24 04:15:48;;;;;;;41.60;21.40;;;;;;;3.42;100.00;97655.78;5111113;28;20414;-80
2021/12/24 04:18:35;;;;;;;39.25;20.25;;;;;;;3.49;100.00;97664.50;5110747;28;20032;-78
2021/12/24 04:26:33;;;;;;;36.80;18.02;;;;;;;3.46;100.00;97665.84;5113325;28;20054;-75
2021/12/24 04:28:58;;;;;;;32.40;18.00;;;;;;;3.36;100.00;97664.91;5115102;28;20538;-76
2021/12/24 04:31:31;;;;;;;39.47;19.73;;;;;;;3.37;100.00;97661.16;5114928;28;20028;-75
2021/12/24 04:34:02;;;;;;;33.50;17.42;;;;;;;3.39;100.00;97669.81;5115123;28;20096;-75
2021/12/24 05:03:30;;;;;;;26.50;14.35;;;;;;;3.01;100.00;97668.91;5115033;28;20195;-75
2021/12/24 05:06:11;;;;;;;26.83;15.07;;;;;;;2.93;100.00;97663.97;5114726;28;20027;-75
2021/12/24 05:08:59;;;;;;;27.77;14.48;;;;;;;2.89;100.00;97665.53;5114304;28;20391;-74
2021/12/24 05:11:25;;;;;;;27.70;14.57;;;;;;;2.97;100.00;97661.59;5114270;28;20559;-75
2021/12/24 05:13:53;;;;;;;27.40;13.93;;;;;;;2.93;100.00;97661.28;5114778;28;20114;-74
2021/12/24 05:21:33;;;;;;;25.90;13.02;;;;;;;2.85;100.00;97664.41;5114310;28;20070;-74
2021/12/24 05:24:26;;;;;;;25.90;13.57;;;;;;;2.79;100.00;97657.31;5114038;28;20028;-75
2021/12/24 05:26:55;;;;;;;26.20;12.38;;;;;;;2.82;100.00;97651.41;5109529;28;20438;-74
2021/12/24 05:29:21;;;;;;;22.00;12.73;;;;;;;2.88;100.00;97653.09;5114217;28;20030;-75
2021/12/24 05:31:48;;;;;;;24.40;12.68;;;;;;;2.85;100.00;97664.41;5113983;28;20026;-74
2021/12/24 05:34:16;;;;;;;23.98;13.50;;;;;;;2.94;100.00;97662.91;5113960;28;20028;-76
2021/12/24 05:36:42;;;;;;;21.88;11.88;;;;;;;2.94;100.00;97657.50;5113761;27;20368;-75
2021/12/24 05:39:10;;;;;;;21.73;11.30;;;;;;;2.92;100.00;97662.34;5112872;28;20035;-77
2021/12/24 05:41:36;;;;;;;20.88;11.20;;;;;;;2.99;100.00;97659.44;5118136;27;20063;-79
2021/12/24 05:44:03;;;;;;;18.40;11.02;;;;;;;2.99;100.00;97660.25;5121425;28;20077;-78
2021/12/24 05:46:29;;;;;;;22.65;12.27;;;;;;;3.07;100.00;97646.28;5120113;28;20039;-80
2021/12/24 05:48:55;;;;;;;20.35;11.35;;;;;;;3.07;100.00;97646.28;5121595;28;20091;-75
2021/12/24 05:51:20;;;;;;;25.30;12.55;;;;;;;3.09;100.00;97648.72;5116825;28;20065;-74
2021/12/24 05:53:45;;;;;;;22.13;11.85;;;;;;;3.12;100.00;97642.81;5115252;28;20040;-74
2021/12/24 05:56:11;;;;;;;23.73;12.27;;;;;;;3.10;99.92;97642.28;5112185;28;20023;-75
2021/12/24 05:58:36;;;;;;;21.70;10.80;;;;;;;3.09;100.00;97633.34;5113621;28;20736;-75
2021/12/24 06:01:02;;;;;;;23.83;11.10;;;;;;;3.05;100.00;97624.13;5113433;28;20064;-73
2021/12/24 06:03:28;;;;;;;23.85;11.95;;;;;;;3.04;100.00;97630.56;5113716;28;20368;-76
2021/12/24 06:05:53;;;;;;;18.17;11.10;;;;;;;3.05;100.00;97632.22;5113630;28;20051;-75
2021/12/24 06:08:18;;;;;;;18.63;10.55;;;;;;;2.97;99.91;97629.16;5113236;28;20024;-75
2021/12/24 06:10:44;;;;;;;19.65;10.77;;;;;;;2.98;99.71;97626.19;5113277;28;20110;-75
2021/12/24 06:13:10;;;;;;;18.05;10.45;;;;;;;3.02;99.32;97621.94;5113448;28;20024;-77
2021/12/24 06:15:43;;;;;;;23.40;12.02;;;;;;;3.03;99.46;97623.56;5112996;27;20047;-76
2021/12/24 06:18:13;;;;;;;17.50;10.85;;;;;;;3.03;98.86;97612.75;5113236;27;20024;-76
2021/12/24 06:20:40;;;;;;;18.38;9.70;;;;;;;3.01;100.00;97614.06;5113119;28;20533;-74
2021/12/24 06:23:07;;;;;;;20.88;10.05;;;;;;;3.03;99.83;97610.06;5113465;28;20027;-76
2021/12/24 06:25:33;;;;;;;21.98;10.55;;;;;;;3.01;100.00;97609.47;5112761;28;20027;-76
2021/12/24 06:27:59;;;;;;;27.08;12.00;;;;;;;3.04;100.00;97603.56;5113305;28;20042;-74
2021/12/24 06:30:29;;;;;;;23.80;11.85;;;;;;;2.96;100.00;97606.75;5099318;28;20040;-74
2021/12/24 06:32:58;;;;;;;21.48;11.23;;;;;;;3.08;100.00;97593.88;5113362;28;20110;-75
2021/12/24 06:35:24;;;;;;;24.25;12.23;;;;;;;3.07;99.46;97586.84;5104239;28;20020;-77
2021/12/24 06:37:51;;;;;;;23.00;11.20;;;;;;;3.11;99.09;97587.97;5090798;28;20449;-76
2021/12/24 06:40:16;;;;;;;20.23;11.43;;;;;;;3.08;99.04;97595.78;5104187;28;20031;-75
2021/12/24 06:42:45;;;;;;;20.63;11.65;;;;;;;3.01;99.19;97577.06;5113559;28;20027;-76
2021/12/24 06:45:10;;;;;;;21.25;10.95;;;;;;;3.10;99.58;97596.34;5111597;28;20363;-76
2021/12/24 06:47:36;;;;;;;21.30;10.57;;;;;;;3.08;98.73;97593.88;5092412;28;20146;-79
2021/12/24 06:50:03;;;;;;;23.20;11.30;;;;;;;3.06;98.24;97595.22;5091186;28;20032;-77
2021/12/24 06:52:29;;;;;;;26.95;12.90;;;;;;;3.02;98.69;97597.63;5093403;28;20046;-74
2021/12/24 06:54:55;;;;;;;24.88;12.25;;;;;;;2.91;99.86;97601.31;5093788;28;20043;-74
2021/12/24 06:57:21;;;;;;;21.10;11.77;;;;;;;2.96;99.84;97603.22;5090277;28;20062;-75
2021/12/24 06:59:47;;;;;;;23.80;11.50;;;;;;;2.95;100.00;97598.88;5091811;28;20031;-75
2021/12/24 07:02:13;;;;;;;21.75;12.85;;;;;;;2.96;100.00;97593.22;5091669;28;20476;-73
2021/12/24 07:04:38;;;;;;;24.70;13.10;;;;;;;3.01;100.00;97603.25;5091667;28;20028;-74
2021/12/24 07:07:04;;;;;;;24.05;13.15;;;;;;;2.96;100.00;97595.13;5092031;28;20028;-76
2021/12/24 07:09:30;;;;;;;24.58;13.05;;;;;;;2.99;100.00;97595.44;5091741;28;20097;-75
2021/12/24 07:11:55;;;;;;;28.27;13.23;;;;;;;2.97;99.60;97602.97;5091602;28;20426;-74
2021/12/24 07:14:23;;;;;;;27.25;13.82;;;;;;;3.08;99.50;97602.00;5091817;28;20476;-75
2021/12/24 07:16:49;;;;;;;27.13;13.45;;;;;;;2.99;99.16;97600.00;5091527;28;20031;-75
2021/12/24 07:19:14;;;;;;;24.08;13.25;;;;;;;3.07;99.22;97600.34;5092984;28;20024;-75
2021/12/24 07:21:41;;;;;;;23.48;12.35;;;;;;;3.06;99.30;97595.22;5091651;28;20031;-74
2021/12/24 07:24:07;;;;;;;25.83;12.38;;;;;;;3.05;98.81;97594.41;5091648;28;20134;-75
2021/12/24 07:26:33;;;;;;;21.02;11.45;;;;;;;3.17;100.00;97596.94;5091337;28;20028;-75
2021/12/24 07:28:58;;;;;;;24.40;13.50;;;;;;;3.30;98.45;97609.19;5091334;28;20030;-76
2021/12/24 07:31:24;;;;;;;23.88;11.30;;;;;;;3.29;98.24;97596.78;5091266;28;20036;-75
2021/12/24 07:33:49;;;;;;;22.55;12.02;;;;;;;3.22;97.87;97595.09;5091266;28;20054;-75
2021/12/24 07:36:15;;;;;;;22.45;12.05;;;;;;;3.18;97.66;97593.16;5088533;28;20472;-76
2021/12/24 07:38:40;;;;;;;20.30;11.30;;;;;;;3.20;98.88;97586.41;5090500;28;20050;-75
2021/12/24 07:41:06;;;;;;;18.58;10.73;;;;;;;3.25;98.11;97593.78;5091073;28;20073;-75
2021/12/24 07:43:32;;;;;;;20.73;11.38;;;;;;;3.23;97.53;97596.72;5091602;28;20020;-76
2021/12/24 07:45:57;;;;;;;22.75;10.85;;;;;;;3.23;96.94;97594.00;5090921;28;20067;-75
2021/12/24 07:48:28;;;;;;;23.38;11.18;;;;;;;3.22;96.92;97589.69;5091217;28;20823;-80
2021/12/24 07:53:20;;;;;;;25.15;12.15;;;;;;;3.30;97.42;97584.88;5090651;28;20408;-76
2021/12/24 07:55:46;;;;;;;20.80;11.30;;;;;;;3.38;97.15;97570.91;5090791;28;20028;-76
2021/12/24 07:58:14;;;;;;;21.27;11.27;;;;;;;3.35;96.21;97571.41;5089350;28;20402;-75
2021/12/24 08:00:41;;;;;;;22.00;10.93;;;;;;;3.31;95.11;97571.13;5094871;28;20044;-75
2021/12/24 08:03:10;;;;;;;21.95;11.30;;;;;;;3.36;95.84;97578.44;5097951;28;20035;-76
2021/12/24 08:05:40;;;;;;;20.75;11.77;;;;;;;3.36;96.02;97579.25;5096857;28;20070;-75
2021/12/24 08:08:07;;;;;;;20.23;11.73;;;;;;;3.40;95.84;97584.97;5098027;28;20028;-74
2021/12/24 08:10:34;;;;;;;24.08;12.35;;;;;;;3.23;95.86;97585.91;5097684;28;20464;-75
2021/12/24 08:13:00;;;;;;;21.42;12.13;;;;;;;3.32;96.19;97585.44;5098027;28;20030;-75
2021/12/24 08:15:26;;;;;;;27.02;13.63;;;;;;;3.34;96.36;97586.00;5098656;28;20028;-75
2021/12/24 08:17:51;;;;;;;21.45;12.10;;;;;;;3.47;96.02;97580.16;5095921;28;20492;-74
2021/12/24 08:20:22;;;;;;;25.30;12.27;;;;;;;3.57;95.02;97585.66;5097485;28;20032;-76
2021/12/24 08:22:53;;;;;;;29.48;12.93;;;;;;;3.64;94.25;97575.41;5097370;28;20039;-75
2021/12/24 08:25:20;;;;;;;22.17;12.13;;;;;;;3.79;95.56;97572.78;5097187;28;20035;-75
2021/12/24 08:27:47;;;;;;;22.92;11.80;;;;;;;3.98;92.56;97578.59;5095863;28;20032;-75
2021/12/24 08:30:12;;;;;;;20.08;12.27;;;;;;;3.91;92.01;97581.53;5097754;28;20036;-75
2021/12/24 08:32:40;;;;;;;21.90;11.65;;;;;;;3.73;92.53;97574.66;5097216;28;20472;-75
2021/12/24 08:35:08;;;;;;;21.40;12.32;;;;;;;3.85;93.12;97576.34;5098037;28;20511;-77
2021/12/24 08:37:33;;;;;;;21.58;12.25;;;;;;;3.83;92.27;97573.91;5103335;28;20067;-78
2021/12/24 08:39:59;;;;;;;25.52;12.82;;;;;;;3.87;92.46;97588.53;5099044;28;20068;-75
2021/12/24 08:42:24;;;;;;;21.38;11.23;;;;;;;3.84;91.54;97575.53;5097627;28;20028;-75
2021/12/24 08:44:51;;;;;;;20.23;10.93;;;;;;;3.82;91.47;97575.00;5096398;28;20032;-75
2021/12/24 08:47:16;;;;;;;23.13;12.00;;;;;;;3.75;92.96;97577.09;5096913;28;20070;-75
2021/12/24 08:49:42;;;;;;;24.33;11.75;;;;;;;3.83;92.01;97579.31;5095642;28;20055;-75
2021/12/24 08:52:07;;;;;;;25.85;12.15;;;;;;;3.95;92.47;97577.22;5106889;28;20043;-74
2021/12/24 08:54:33;;;;;;;23.95;12.80;;;;;;;3.99;91.93;97578.31;5114573;28;20048;-73
2021/12/24 08:56:58;;;;;;;21.20;12.02;;;;;;;3.87;91.99;97576.91;5116570;28;20077;-74
2021/12/24 08:59:24;;;;;;;24.13;12.77;;;;;;;3.77;92.14;97564.94;5113314;28;20391;-76
2021/12/24 09:01:51;;;;;;;21.15;11.68;;;;;;;4.11;96.82;97565.41;5116565;27;20123;-74
2021/12/24 09:04:16;;;;;;;22.27;12.10;;;;;;;4.35;91.27;97570.38;5114982;28;20347;-73
2021/12/24 09:06:42;;;;;;;25.10;13.50;;;;;;;4.82;88.35;97565.66;5116508;27;20034;-76
2021/12/24 09:09:10;;;;;;;20.38;11.57;;;;;;;5.13;86.62;97571.91;5114872;27;20028;-76
2021/12/24 09:11:37;;;;;;;31.45;11.75;;;;;;;5.03;85.68;97561.06;5109922;27;20392;-75
2021/12/24 09:14:03;;;;;;;27.30;12.75;;;;;;;4.88;86.80;97580.00;5113878;28;20062;-75
2021/12/24 09:16:28;;;;;;;29.05;13.25;;;;;;;4.89;87.38;97570.81;5109320;28;20055;-74
2021/12/24 09:19:03;;;;;;;28.35;14.63;;;;;;;4.79;87.87;97575.09;5109300;28;20039;-75
2021/12/24 09:21:28;;;;;;;22.85;12.50;;;;;;;4.58;88.64;97567.19;5109531;28;20019;-76
2021/12/24 09:23:55;;;;;;;26.48;13.10;;;;;;;4.70;88.75;97562.34;5112164;28;20396;-75
2021/12/24 09:26:27;;;;;;;25.23;13.52;;;;;;;4.49;89.06;97553.38;5113490;28;20027;-76
2021/12/24 09:28:53;;;;;;;28.67;14.52;;;;;;;4.29;91.25;97554.09;5119567;28;20470;-75
2021/12/24 09:31:19;;;;;;;26.08;13.00;;;;;;;4.26;92.12;97538.38;5112831;28;20221;-75
2021/12/24 09:33:44;;;;;;;26.08;13.50;;;;;;;4.19;92.18;97543.25;5110189;28;20059;-75
2021/12/24 09:36:10;;;;;;;32.92;14.23;;;;;;;4.21;92.66;97537.56;5112994;28;20023;-72
2021/12/24 09:38:35;;;;;;;27.92;15.55;;;;;;;4.14;93.76;97532.41;5113079;28;20024;-76
2021/12/24 09:41:01;;;;;;;30.65;15.18;;;;;;;4.23;94.49;97525.38;5112388;28;20387;-75
2021/12/24 09:43:26;;;;;;;30.30;13.32;;;;;;;4.27;95.17;97521.09;5112925;28;20027;-75
2021/12/24 09:45:52;;;;;;;32.55;15.82;;;;;;;4.28;97.66;97527.31;5113154;28;20041;-75
2021/12/24 09:48:17;;;;;;;31.45;16.80;;;;;;;4.09;97.73;97513.44;5112739;28;20440;-75
2021/12/24 09:50:43;;;;;;;28.88;14.95;;;;;;;4.08;98.22;97517.22;5112765;28;20023;-75
2021/12/24 09:53:09;;;;;;;30.15;14.88;;;;;;;3.93;98.45;97510.94;5114117;28;20050;-74
2021/12/24 09:55:34;;;;;;;25.35;14.57;;;;;;;3.91;97.63;97519.31;5114266;28;20031;-74
2021/12/24 09:58:00;;;;;;;33.63;15.20;;;;;;;3.93;98.17;97509.03;5114419;28;20016;-76
2021/12/24 10:00:26;;;;;;;26.45;14.35;;;;;;;3.79;99.08;97513.28;5113374;28;20104;-75
2021/12/24 10:02:55;;;;;;;31.00;14.88;;;;;;;3.82;100.00;97510.09;5114434;28;20038;-73
2021/12/24 10:05:42;;;;;;;27.25;14.98;;;;;;;3.75;100.00;97501.38;5113539;28;20051;-75
2021/12/24 10:08:19;;;;;;;36.20;16.52;;;;;;;3.83;100.00;97508.16;5114509;28;20030;-75
2021/12/24 10:10:49;;;;;;;33.70;15.40;;;;;;;3.83;100.00;97505.47;5115462;28;20027;-75
2021/12/24 10:13:29;;;;;;;33.55;17.90;;;;;;;3.81;99.61;97504.91;5113181;28;20475;-76
2021/12/24 10:16:03;;;;;;;29.42;15.70;;;;;;;3.78;99.41;97495.44;5113206;28;20032;-75
2021/12/24 10:18:38;;;;;;;38.30;19.00;;;;;;;3.75;100.00;97495.97;5113124;27;20035;-74
2021/12/24 10:21:14;;;;;;;34.40;17.45;;;;;;;3.67;100.00;97494.56;5113128;28;20028;-74
2021/12/24 10:23:53;;;;;;;32.63;16.17;;;;;;;3.61;100.00;97495.63;5112371;28;20443;-74
2021/12/24 10:26:18;;;;;;;34.75;18.10;;;;;;;3.70;100.00;97493.22;5112979;28;20024;-74
2021/12/24 10:28:50;;;;;;;33.92;17.70;;;;;;;3.68;99.68;97489.97;5113685;28;20024;-74
2021/12/24 10:31:35;;;;;;;33.22;16.05;;;;;;;3.80;99.15;97493.28;5113859;28;20019;-74
2021/12/24 10:34:26;;;;;;;32.00;16.98;;;;;;;3.68;99.62;97489.97;5112383;28;20383;-75
2021/12/24 10:37:04;;;;;;;34.60;16.80;;;;;;;3.73;99.63;97487.28;5113750;28;20053;-74
2021/12/24 10:39:40;;;;;;;28.45;16.40;;;;;;;3.60;99.83;97485.88;5111333;28;20466;-75
2021/12/24 10:42:31;;;;;;;32.25;16.05;;;;;;;3.66;100.00;97479.44;5112859;28;20039;-73
2021/12/24 10:44:59;;;;;;;31.92;16.80;;;;;;;3.83;100.00;97481.13;5112621;28;20035;-75
2021/12/24 10:47:33;;;;;;;35.70;17.40;;;;;;;3.88;100.00;97481.16;5112340;28;20112;-76
2021/12/24 10:55:34;;;;;;;36.95;17.60;;;;;;;3.84;100.00;97464.66;5098848;28;20035;-74
2021/12/24 10:58:05;;;;;;;36.85;18.45;;;;;;;3.92;100.00;97466.00;5101180;28;20035;-81
2021/12/24 11:00:38;;;;;;;38.70;17.63;;;;;;;3.98;100.00;97471.19;5109372;28;20061;-75
2021/12/24 11:03:07;;;;;;;33.35;18.48;;;;;;;4.06;100.00;97470.69;5093497;28;20056;-74
2021/12/24 11:05:34;;;;;;;38.15;19.70;;;;;;;4.20;100.00;97460.16;5092629;28;20024;-77
2021/12/24 11:08:04;;;;;;;41.55;18.98;;;;;;;4.10;100.00;97447.41;5102142;28;20036;-75
2021/12/24 11:10:37;;;;;;;33.38;17.40;;;;;;;4.08;100.00;97441.44;5099230;28;20028;-75
2021/12/24 11:13:13;;;;;;;38.33;18.50;;;;;;;4.24;100.00;97450.41;5108354;28;20613;-74
2021/12/24 11:15:42;;;;;;;43.28;18.27;;;;;;;4.15;100.00;97452.03;5091477;28;20028;-74
2021/12/24 11:18:14;;;;;;;37.25;18.95;;;;;;;4.16;100.00;97434.72;5091582;28;20024;-74
2021/12/24 11:20:40;;;;;;;35.83;18.45;;;;;;;4.19;100.00;97424.19;5091413;28;20042;-78
2021/12/24 11:23:09;;;;;;;43.78;19.08;;;;;;;4.20;100.00;97428.50;5091342;28;20028;-74
2021/12/24 11:25:48;;;;;;;39.80;18.88;;;;;;;4.25;100.00;97431.22;5096497;28;20026;-74
2021/12/24 11:28:18;;;;;;;37.05;19.08;;;;;;;4.36;100.00;97425.81;5111720;28;20031;-74
2021/12/24 11:30:49;;;;;;;37.80;19.27;;;;;;;4.51;100.00;97423.13;5097425;28;20024;-75
2021/12/24 11:33:17;;;;;;;41.53;18.98;;;;;;;4.61;100.00;97417.72;5104222;28;20035;-76
2021/12/24 11:35:44;;;;;;;34.95;19.75;;;;;;;4.74;100.00;97409.03;5099418;28;20024;-75
2021/12/24 11:38:14;;;;;;;33.60;17.70;;;;;;;4.75;100.00;97418.81;5107906;28;20028;-75
2021/12/24 11:40:46;;;;;;;38.50;18.90;;;;;;;4.54;100.00;97411.78;5109262;28;20019;-75
2021/12/24 11:43:11;;;;;;;36.50;19.75;;;;;;;4.42;100.00;97405.81;5101257;28;20031;-75
2021/12/24 11:45:37;;;;;;;40.40;20.20;;;;;;;4.55;100.00;97402.53;5099028;28;20016;-73
2021/12/24 11:48:03;;;;;;;38.13;20.77;;;;;;;4.51;100.00;97401.47;5099201;28;20047;-75
2021/12/24 11:50:31;;;;;;;40.95;19.92;;;;;;;4.50;100.00;97403.38;5102803;28;20081;-74
2021/12/24 11:53:00;;;;;;;32.42;18.35;;;;;;;4.45;100.00;97392.50;5106264;28;20130;-76
2021/12/24 11:55:31;;;;;;;38.97;21.25;;;;;;;4.44;100.00;97387.38;5102369;28;20388;-74
2021/12/24 11:58:00;;;;;;;41.78;20.95;;;;;;;5.28;100.00;97385.66;5104754;28;20073;-74
2021/12/24 12:00:31;;;;;;;42.17;19.95;;;;;;;5.00;100.00;97388.97;5108478;28;20035;-74
2021/12/24 12:02:57;;;;;;;38.35;21.05;;;;;;;4.84;100.00;97376.53;5108712;28;20015;-74
2021/12/24 12:05:32;;;;;;;45.58;22.48;;;;;;;4.76;100.00;97377.09;5105179;28;20433;-75
2021/12/24 12:08:22;;;;;;;46.60;22.27;;;;;;;4.72;100.00;97365.19;5104046;28;20532;-76
2021/12/24 12:10:56;;;;;;;40.30;20.38;;;;;;;4.70;100.00;97373.56;5096542;28;20046;-78
2021/12/24 12:13:55;;;;;;;43.28;20.92;;;;;;;4.58;100.00;97364.09;5104004;28;20023;-75
2021/12/24 12:16:45;;;;;;;46.83;22.40;;;;;;;4.58;100.00;97364.09;5106887;28;20441;-75
2021/12/24 12:19:14;;;;;;;46.47;23.00;;;;;;;4.67;100.00;97354.31;5105451;28;20548;-75
2021/12/24 12:21:41;;;;;;;59.55;27.23;;;;;;;4.68;100.00;97342.41;5108569;28;20067;-77
2021/12/24 12:26:44;;;;;;;42.15;22.73;;;;;;;4.82;100.00;97346.22;5108199;28;20176;-74
2021/12/24 12:29:24;;;;;;;45.28;21.60;;;;;;;4.88;100.00;97341.59;5104890;28;20027;-78
2021/12/24 12:32:38;;;;;;;37.13;18.65;;;;;;;5.15;100.00;97331.22;5107026;28;20106;-74
2021/12/24 12:35:04;;;;;;;37.50;15.40;;;;;;;5.46;100.00;97326.47;5051681;28;20558;-75
2021/12/24 12:37:41;;;;;;;24.02;13.30;;;;;;;5.82;100.00;97336.91;5053973;28;20044;-75
2021/12/24 12:40:12;;;;;;;21.45;11.48;;;;;;;6.10;100.00;97327.25;5085792;28;20044;-75
2021/12/24 12:42:51;;;;;;;23.50;11.75;;;;;;;6.34;100.00;97322.72;5106746;28;20022;-76
2021/12/24 12:45:42;;;;;;;19.30;11.75;;;;;;;6.51;100.00;97316.06;5103274;28;20111;-76
2021/12/24 12:48:11;;;;;;;19.30;10.15;;;;;;;6.73;100.00;97310.97;5102195;28;20027;-75
2021/12/24 12:50:40;;;;;;;18.92;10.20;;;;;;;6.81;100.00;97316.59;5112149;28;20034;-76
2021/12/24 12:53:30;;;;;;;20.17;9.02;;;;;;;6.91;100.00;97312.97;5111531;28;20036;-77
2021/12/24 12:56:20;;;;;;;17.02;9.02;;;;;;;6.92;100.00;97301.00;5108739;28;20039;-76
2021/12/24 12:58:58;;;;;;;17.65;8.55;;;;;;;6.96;100.00;97307.47;5092976;28;20391;-75
2021/12/24 13:01:24;;;;;;;18.35;9.30;;;;;;;7.08;100.00;97302.44;5093582;28;20510;-76
2021/12/24 13:04:13;;;;;;;15.43;8.77;;;;;;;7.05;100.00;97308.44;5111283;28;20027;-75
2021/12/24 13:06:41;;;;;;;14.75;8.45;;;;;;;7.09;100.00;97306.78;5102833;28;20027;-76
2021/12/24 13:09:09;;;;;;;13.65;7.28;;;;;;;7.10;100.00;97308.41;5100920;28;20020;-75
2021/12/24 13:11:44;;;;;;;15.25;8.15;;;;;;;7.19;100.00;97306.69;5092633;28;20028;-74
2021/12/24 13:14:11;;;;;;;16.13;7.67;;;;;;;7.25;100.00;97299.25;5097650;28;20024;-74
2021/12/24 13:16:51;;;;;;;14.40;8.02;;;;;;;7.34;100.00;97292.91;5109085;28;20355;-74